createdAt,value
2022-11-27T00:01:33.324Z,32.47
2022-11-27T00:04:00.697Z,29.55
2022-11-27T00:06:29.419Z,36.15
2022-11-27T00:09:01.263Z,35.47
2022-11-27T00:11:31.035Z,31.17
2022-11-27T00:13:58.580Z,33.35
2022-11-27T00:16:27.273Z,32.10
2022-11-27T00:18:54.535Z,33.15
2022-11-27T00:21:24.822Z,32.10
2022-11-27T00:23:53.626Z,33.53
2022-11-27T00:26:22.438Z,31.88
2022-11-27T00:28:50.657Z,29.70
2022-11-27T00:31:21.447Z,32.42
2022-11-27T00:33:49.243Z,30.33
2022-11-27T00:36:16.904Z,33.35
2022-11-27T00:38:44.097Z,33.88
2022-11-27T00:41:23.205Z,33.38
2022-11-27T00:43:50.835Z,27.95
2022-11-27T00:46:25.371Z,31.60
2022-11-27T00:48:56.668Z,33.67
2022-11-27T00:51:25.017Z,28.92
2022-11-27T00:53:53.474Z,31.13
2022-11-27T00:56:26.424Z,33.05
2022-11-27T00:58:54.094Z,29.80
2022-11-27T01:01:27.683Z,31.58
2022-11-27T01:03:56.280Z,31.35
2022-11-27T01:06:24.842Z,31.67
2022-11-27T01:08:52.275Z,34.58
2022-11-27T01:11:23.018Z,33.67
2022-11-27T01:13:50.214Z,34.33
2022-11-27T01:16:21.085Z,35.53
2022-11-27T01:18:49.528Z,30.33
2022-11-27T01:21:19.804Z,30.63
2022-11-27T01:23:48.231Z,31.83
2022-11-27T01:26:17.894Z,33.47
2022-11-27T01:28:45.923Z,34.55
2022-11-27T01:31:16.852Z,31.05
2022-11-27T01:33:46.435Z,31.17
2022-11-27T01:36:15.875Z,38.20
2022-11-27T01:38:43.383Z,35.00
2022-11-27T01:41:24.002Z,36.22
2022-11-27T01:43:55.920Z,33.10
2022-11-27T01:46:29.310Z,34.75
2022-11-27T01:49:08.866Z,31.95
2022-11-27T01:51:46.035Z,34.05
2022-11-27T01:54:15.197Z,35.75
2022-11-27T01:56:46.012Z,35.15
2022-11-27T01:59:14.014Z,33.47
2022-11-27T02:01:41.480Z,36.50
2022-11-27T02:04:08.657Z,29.42
2022-11-27T02:06:36.214Z,29.67
2022-11-27T02:09:03.881Z,30.42
2022-11-27T02:11:58.634Z,27.20
2022-11-27T02:15:00.998Z,30.00
2022-11-27T02:17:36.646Z,28.55
2022-11-27T02:20:29.219Z,29.67
2022-11-27T02:23:30.739Z,28.25
2022-11-27T02:26:12.438Z,25.15
2022-11-27T02:29:02.553Z,25.10
2022-11-27T02:31:53.092Z,24.67
2022-11-27T02:34:49.615Z,21.27
2022-11-27T02:37:32.535Z,24.30
2022-11-27T02:40:26.328Z,24.90
2022-11-27T02:43:06.466Z,24.65
2022-11-27T02:45:55.755Z,24.15
2022-11-27T02:48:27.229Z,24.08
2022-11-27T02:50:56.030Z,24.17
2022-11-27T02:53:28.668Z,24.08
2022-11-27T02:55:58.283Z,25.35
2022-11-27T02:58:28.463Z,24.30
2022-11-27T03:00:58.010Z,26.85
2022-11-27T03:03:30.016Z,29.20
2022-11-27T03:06:03.566Z,22.98
2022-11-27T03:08:51.326Z,22.27
2022-11-27T03:11:18.852Z,22.00
2022-11-27T03:13:51.754Z,22.00
2022-11-27T03:16:49.876Z,18.48
2022-11-27T03:19:20.195Z,17.98
2022-11-27T03:21:52.686Z,18.90
2022-11-27T03:24:19.987Z,18.02
2022-11-27T03:26:48.051Z,17.65
2022-11-27T03:29:20.548Z,18.95
2022-11-27T03:31:49.424Z,18.95
2022-11-27T03:34:16.797Z,20.75
2022-11-27T03:36:45.702Z,21.10
2022-11-27T03:39:13.409Z,19.15
2022-11-27T03:41:53.592Z,22.13
2022-11-27T03:44:32.900Z,19.90
2022-11-27T03:47:30.436Z,24.00
2022-11-27T03:50:12.961Z,21.27
2022-11-27T03:53:00.536Z,23.88
2022-11-27T03:55:46.416Z,23.27
2022-11-27T03:58:26.084Z,21.23
2022-11-27T04:00:54.811Z,37.63
2022-11-27T04:03:28.643Z,23.02
2022-11-27T04:05:56.665Z,24.42
2022-11-27T04:08:25.622Z,27.75
2022-11-27T04:10:52.778Z,25.17
2022-11-27T04:13:20.237Z,23.88
2022-11-27T04:15:47.745Z,23.55
2022-11-27T04:18:15.344Z,27.17
2022-11-27T04:20:42.538Z,27.50
2022-11-27T04:23:10.576Z,26.65
2022-11-27T04:25:37.794Z,27.23
2022-11-27T04:28:05.352Z,30.52
2022-11-27T04:30:32.474Z,32.78
2022-11-27T04:32:59.913Z,32.08
2022-11-27T04:35:27.080Z,31.70
2022-11-27T04:37:56.648Z,33.53
2022-11-27T04:40:24.075Z,31.38
2022-11-27T04:42:52.132Z,32.15
2022-11-27T04:45:19.429Z,38.67
2022-11-27T04:47:46.866Z,35.53
2022-11-27T04:50:14.080Z,37.85
2022-11-27T04:52:41.557Z,38.08
2022-11-27T04:55:09.313Z,38.80
2022-11-27T04:57:36.781Z,40.00
2022-11-27T05:00:05.342Z,33.08
2022-11-27T05:02:33.021Z,36.90
2022-11-27T05:05:00.305Z,35.95
2022-11-27T05:07:27.993Z,39.70
2022-11-27T05:09:55.174Z,38.47
2022-11-27T05:12:22.736Z,38.17
2022-11-27T05:14:49.899Z,37.58
2022-11-27T05:17:17.375Z,36.85
2022-11-27T05:19:44.532Z,37.08
2022-11-27T05:22:12.004Z,39.33
2022-11-27T05:24:39.360Z,39.00
2022-11-27T05:27:07.009Z,38.03
2022-11-27T05:29:34.393Z,38.60
2022-11-27T05:32:01.960Z,39.65
2022-11-27T05:34:29.108Z,35.50
2022-11-27T05:36:56.617Z,35.03
2022-11-27T05:39:24.023Z,40.08
2022-11-27T05:41:51.477Z,34.60
2022-11-27T05:44:18.655Z,37.28
2022-11-27T05:46:46.241Z,37.03
2022-11-27T05:49:15.708Z,35.13
2022-11-27T05:51:50.660Z,41.13
2022-11-27T05:54:19.123Z,37.50
2022-11-27T05:56:46.649Z,40.20
2022-11-27T05:59:14.579Z,37.63
2022-11-27T06:01:42.760Z,41.20
2022-11-27T06:04:09.995Z,38.35
2022-11-27T06:06:37.474Z,38.72
2022-11-27T06:09:08.059Z,40.00
2022-11-27T06:11:39.822Z,42.85
2022-11-27T06:14:11.068Z,43.03
2022-11-27T06:16:38.835Z,35.58
2022-11-27T06:19:06.071Z,36.92
2022-11-27T06:21:33.630Z,41.28
2022-11-27T06:24:00.770Z,39.55
2022-11-27T06:26:30.786Z,42.03
2022-11-27T06:28:59.432Z,44.85
2022-11-27T06:31:30.260Z,47.97
2022-11-27T06:33:58.358Z,39.53
2022-11-27T06:36:29.887Z,40.60
2022-11-27T06:38:57.173Z,48.95
2022-11-27T06:41:27.116Z,47.05
2022-11-27T06:43:55.514Z,41.65
2022-11-27T06:46:23.996Z,50.47
2022-11-27T06:48:53.235Z,42.30
2022-11-27T06:51:26.016Z,48.85
2022-11-27T06:53:53.930Z,41.28
2022-11-27T06:56:25.333Z,49.30
2022-11-27T06:58:54.662Z,46.25
2022-11-27T07:01:23.738Z,43.40
2022-11-27T07:03:51.510Z,46.22
2022-11-27T07:06:23.053Z,38.22
2022-11-27T07:08:50.900Z,38.10
2022-11-27T07:11:21.083Z,37.35
2022-11-27T07:13:49.832Z,41.90
2022-11-27T07:16:18.578Z,32.72
2022-11-27T07:18:48.710Z,35.08
2022-11-27T07:21:16.968Z,37.35
2022-11-27T07:23:44.372Z,31.58
2022-11-27T07:26:17.606Z,31.80
2022-11-27T07:28:45.972Z,32.20
2022-11-27T07:31:18.979Z,34.08
2022-11-27T07:33:46.964Z,27.25
2022-11-27T07:36:23.521Z,28.45
2022-11-27T07:38:50.712Z,28.35
2022-11-27T07:41:18.616Z,27.38
2022-11-27T07:43:46.662Z,27.50
2022-11-27T07:46:20.544Z,23.75
2022-11-27T07:48:47.993Z,28.70
2022-11-27T07:51:18.226Z,25.67
2022-11-27T07:53:46.152Z,30.42
2022-11-27T07:56:15.850Z,24.70
2022-11-27T07:58:43.443Z,24.08
2022-11-27T08:01:14.029Z,23.48
2022-11-27T08:03:44.364Z,22.23
2022-11-27T08:06:26.075Z,21.13
2022-11-27T08:08:56.726Z,21.45
2022-11-27T08:11:27.402Z,19.77
2022-11-27T08:14:02.793Z,19.35
2022-11-27T08:16:31.548Z,17.77
2022-11-27T08:18:59.110Z,16.00
2022-11-27T08:21:27.367Z,23.75
2022-11-27T08:23:54.567Z,18.67
2022-11-27T08:26:22.081Z,19.17
2022-11-27T08:28:52.741Z,21.63
2022-11-27T08:31:21.028Z,23.25
2022-11-27T08:33:48.316Z,23.23
2022-11-27T08:36:18.414Z,21.80
2022-11-27T08:38:47.001Z,24.15
2022-11-27T08:41:14.577Z,27.25
2022-11-27T08:43:41.791Z,23.98
2022-11-27T08:46:10.373Z,23.42
2022-11-27T08:48:37.602Z,20.55
2022-11-27T08:51:10.761Z,24.15
2022-11-27T08:53:38.074Z,19.55
2022-11-27T08:56:11.854Z,20.55
2022-11-27T08:58:41.095Z,20.92
2022-11-27T09:01:16.289Z,19.20
2022-11-27T09:03:43.737Z,18.35
2022-11-27T09:06:13.839Z,19.42
2022-11-27T09:08:42.401Z,17.10
2022-11-27T09:11:10.336Z,19.77
2022-11-27T09:13:40.193Z,19.50
2022-11-27T09:16:10.370Z,18.55
2022-11-27T09:18:38.695Z,21.50
2022-11-27T09:21:10.798Z,18.17
2022-11-27T09:23:38.812Z,20.25
2022-11-27T09:26:08.930Z,20.40
2022-11-27T09:28:37.456Z,18.67
2022-11-27T09:31:06.719Z,19.67
2022-11-27T09:33:36.362Z,17.75
2022-11-27T09:36:09.130Z,17.27
2022-11-27T09:38:38.392Z,16.00
2022-11-27T09:41:20.088Z,15.77
2022-11-27T09:46:40.895Z,18.48
2022-11-27T09:49:14.553Z,18.98
2022-11-27T09:52:14.827Z,21.02
2022-11-27T09:55:00.313Z,18.52
2022-11-27T09:57:32.799Z,17.98
2022-11-27T10:00:10.863Z,21.02
2022-11-27T10:02:38.352Z,17.73
2022-11-27T10:05:17.843Z,18.67
2022-11-27T10:08:10.968Z,18.10
2022-11-27T10:10:45.601Z,21.70
2022-11-27T10:13:43.268Z,19.45
2022-11-27T10:16:33.959Z,22.17
2022-11-27T10:19:25.311Z,21.00
2022-11-27T10:22:00.054Z,22.38
2022-11-27T10:25:01.054Z,21.38
2022-11-27T10:27:38.235Z,22.02
2022-11-27T10:30:18.486Z,20.80
2022-11-27T10:32:56.783Z,22.00
2022-11-27T10:35:26.661Z,18.00
2022-11-27T10:38:14.912Z,20.38
2022-11-27T10:41:00.869Z,18.55
2022-11-27T10:43:28.350Z,20.20
2022-11-27T10:46:04.948Z,19.70
2022-11-27T10:48:33.497Z,18.08
2022-11-27T10:51:00.988Z,17.83
2022-11-27T10:53:43.017Z,18.50
2022-11-27T10:56:16.220Z,18.52
2022-11-27T10:58:50.248Z,19.25
2022-11-27T11:01:20.661Z,17.02
2022-11-27T11:03:48.294Z,17.85
2022-11-27T11:06:27.124Z,16.90
2022-11-27T11:09:04.771Z,17.88
2022-11-27T11:11:32.147Z,19.55
2022-11-27T11:13:59.701Z,20.77
2022-11-27T11:16:34.838Z,20.48
2022-11-27T11:19:03.431Z,20.90
2022-11-27T11:21:38.767Z,21.45
2022-11-27T11:24:40.312Z,22.23
2022-11-27T11:27:16.326Z,21.90
2022-11-27T11:29:46.612Z,22.02
2022-11-27T11:32:21.793Z,20.23
2022-11-27T11:34:59.192Z,18.33
2022-11-27T11:37:32.006Z,17.67
2022-11-27T11:39:59.544Z,21.30
2022-11-27T11:42:29.900Z,19.90
2022-11-27T11:45:13.300Z,17.88
2022-11-27T11:47:49.972Z,19.85
2022-11-27T11:50:35.388Z,20.00
2022-11-27T11:53:12.856Z,18.60
2022-11-27T11:56:01.008Z,18.52
2022-11-27T11:58:46.911Z,21.52
2022-11-27T12:01:32.723Z,20.65
2022-11-27T12:04:34.038Z,22.15
2022-11-27T12:07:17.536Z,21.30
2022-11-27T12:09:53.665Z,22.27
2022-11-27T12:12:55.055Z,19.02
2022-11-27T12:15:44.741Z,21.10
2022-11-27T12:18:21.167Z,23.65
2022-11-27T12:21:06.648Z,19.15
2022-11-27T12:23:49.772Z,20.95
2022-11-27T12:26:31.477Z,20.40
2022-11-27T12:29:29.770Z,20.33
2022-11-27T12:32:18.510Z,18.85
2022-11-27T12:34:55.184Z,19.48
2022-11-27T12:37:45.347Z,19.25
2022-11-27T12:40:22.887Z,17.73
2022-11-27T12:43:07.200Z,17.90
2022-11-27T12:45:42.110Z,15.00
2022-11-27T12:48:36.203Z,17.40
2022-11-27T12:51:12.408Z,17.33
2022-11-27T12:53:45.557Z,18.02
2022-11-27T12:56:21.699Z,17.17
2022-11-27T12:58:57.174Z,15.73
2022-11-27T13:01:31.454Z,15.35
2022-11-27T13:04:19.905Z,19.35
2022-11-27T13:07:00.025Z,20.70
2022-11-27T13:09:51.581Z,24.77
2022-11-27T13:12:37.777Z,23.60
2022-11-27T13:15:16.895Z,18.67
2022-11-27T13:17:48.208Z,17.75
2022-11-27T13:20:20.420Z,16.83
2022-11-27T13:22:50.001Z,16.65
2022-11-27T13:25:17.431Z,18.50
2022-11-27T13:27:49.423Z,18.50
2022-11-27T13:30:23.938Z,18.88
2022-11-27T13:32:55.262Z,21.17
2022-11-27T13:35:45.094Z,16.40
2022-11-27T13:38:22.832Z,23.60
2022-11-27T13:40:53.320Z,21.05
2022-11-27T13:43:34.400Z,24.93
2022-11-27T13:46:07.417Z,22.58
2022-11-27T13:48:38.418Z,25.65
2022-11-27T13:51:08.315Z,22.83
2022-11-27T13:53:42.148Z,24.83
2022-11-27T13:56:10.071Z,26.33
2022-11-27T13:58:42.952Z,27.17
2022-11-27T14:01:20.627Z,28.25
2022-11-27T14:03:49.539Z,28.33
2022-11-27T14:06:30.656Z,26.33
2022-11-27T14:09:01.017Z,25.85
2022-11-27T14:11:44.445Z,27.20
2022-11-27T14:14:27.245Z,30.52
2022-11-27T14:17:02.722Z,23.83
2022-11-27T14:19:45.334Z,29.77
2022-11-27T14:23:11.308Z,26.88
2022-11-27T14:25:39.055Z,25.85
2022-11-27T14:28:21.474Z,25.10
2022-11-27T14:31:00.316Z,22.65
2022-11-27T14:33:59.550Z,24.70
2022-11-27T14:36:30.759Z,26.05
2022-11-27T14:38:59.130Z,22.88
2022-11-27T14:41:28.181Z,24.00
2022-11-27T14:44:02.613Z,26.90
2022-11-27T14:46:32.681Z,25.98
2022-11-27T14:48:59.886Z,25.60
2022-11-27T14:51:29.793Z,25.75
2022-11-27T14:54:01.353Z,26.95
2022-11-27T14:59:00.992Z,25.88
2022-11-27T15:01:34.666Z,26.25
2022-11-27T15:04:23.497Z,26.27
2022-11-27T15:06:51.693Z,28.48
2022-11-27T15:09:31.736Z,26.52
2022-11-27T15:12:17.442Z,29.08
2022-11-27T15:15:06.568Z,25.52
2022-11-27T15:17:37.379Z,24.83
2022-11-27T15:20:14.861Z,27.33
2022-11-27T15:22:57.456Z,31.17
2022-11-27T15:25:39.139Z,30.45
2022-11-27T15:28:36.174Z,30.88
2022-11-27T15:31:24.978Z,33.28
2022-11-27T15:34:08.971Z,28.20
2022-11-27T15:36:42.596Z,25.70
2022-11-27T15:39:22.270Z,29.98
2022-11-27T15:42:00.246Z,25.27
2022-11-27T15:44:31.222Z,25.63
2022-11-27T15:47:01.068Z,27.08
2022-11-27T15:49:28.816Z,32.15
2022-11-27T15:51:57.313Z,30.92
2022-11-27T15:54:25.340Z,27.40
2022-11-27T15:56:52.541Z,34.20
2022-11-27T15:59:22.983Z,30.17
2022-11-27T16:01:50.249Z,31.42
2022-11-27T16:04:17.918Z,32.15
2022-11-27T16:06:45.512Z,36.92
2022-11-27T16:09:12.987Z,36.15
2022-11-27T16:11:40.455Z,37.00
2022-11-27T16:14:07.980Z,38.40
2022-11-27T16:16:35.633Z,41.63
2022-11-27T16:19:06.466Z,37.10
2022-11-27T16:21:35.744Z,35.65
2022-11-27T16:24:06.133Z,35.47
2022-11-27T16:26:33.829Z,39.58
2022-11-27T16:29:01.380Z,38.45
2022-11-27T16:31:28.974Z,35.58
2022-11-27T16:33:56.512Z,41.78
2022-11-27T16:36:25.540Z,40.65
2022-11-27T16:38:54.699Z,41.60
2022-11-27T16:41:25.325Z,36.35
2022-11-27T16:43:56.730Z,41.22
2022-11-27T16:46:28.118Z,43.97
2022-11-27T16:48:58.927Z,42.75
2022-11-27T16:51:31.369Z,42.15
2022-11-27T16:54:01.207Z,45.67
2022-11-27T16:56:30.417Z,41.35
2022-11-27T16:59:02.782Z,42.10
2022-11-27T17:01:34.705Z,41.28
2022-11-27T17:04:09.144Z,36.10
2022-11-27T17:06:38.839Z,41.95
2022-11-27T17:09:08.101Z,46.85
2022-11-27T17:11:37.082Z,46.72
2022-11-27T17:14:08.670Z,45.17
2022-11-27T17:16:39.516Z,48.53
2022-11-27T17:19:07.580Z,46.57
2022-11-27T17:21:35.486Z,45.70
2022-11-27T17:24:14.345Z,48.08
2022-11-27T17:26:45.253Z,46.50
2022-11-27T17:29:14.929Z,48.85
2022-11-27T17:31:42.635Z,50.78
2022-11-27T17:34:13.317Z,54.05
2022-11-27T17:36:43.030Z,56.28
2022-11-27T17:39:13.047Z,59.50
2022-11-27T17:41:41.680Z,57.45
2022-11-27T17:44:09.140Z,53.63
2022-11-27T17:46:37.193Z,58.22
2022-11-27T17:49:07.320Z,53.30
2022-11-27T17:51:36.278Z,50.03
2022-11-27T17:54:05.722Z,52.38
2022-11-27T17:56:34.889Z,52.28
2022-11-27T17:59:03.293Z,46.38
2022-11-27T18:01:31.210Z,50.63
2022-11-27T18:04:01.038Z,47.00
2022-11-27T18:06:31.332Z,48.85
2022-11-27T18:08:59.905Z,50.75
2022-11-27T18:11:30.316Z,44.33
2022-11-27T18:14:01.559Z,43.95
2022-11-27T18:16:36.947Z,44.90
2022-11-27T18:19:07.537Z,43.72
2022-11-27T18:21:35.496Z,44.95
2022-11-27T18:29:40.202Z,40.88
2022-11-27T18:32:08.302Z,38.50
2022-11-27T18:34:35.973Z,34.92
2022-11-27T18:37:04.417Z,37.35
2022-11-27T18:39:32.204Z,41.00
2022-11-27T18:41:59.688Z,38.88
2022-11-27T18:44:27.205Z,35.88
2022-11-27T18:46:54.985Z,37.55
2022-11-27T18:49:23.932Z,41.22
2022-11-27T18:51:53.090Z,38.30
2022-11-27T18:54:21.533Z,46.40
2022-11-27T18:56:48.995Z,49.08
2022-11-27T18:59:16.558Z,48.92
2022-11-27T19:01:45.614Z,46.47
2022-11-27T19:04:13.305Z,46.65
2022-11-27T19:06:42.430Z,47.95
2022-11-27T19:09:12.322Z,51.17
2022-11-27T19:11:40.111Z,51.00
2022-11-27T19:14:08.027Z,47.42
2022-11-27T19:16:41.829Z,46.28
2022-11-27T19:19:30.031Z,43.33
2022-11-27T19:21:57.593Z,40.10
2022-11-27T19:24:26.209Z,39.10
2022-11-27T19:26:54.224Z,41.38
2022-11-27T19:29:21.730Z,41.75
2022-11-27T19:31:48.948Z,40.28
2022-11-27T19:34:16.449Z,41.58
2022-11-27T19:36:43.956Z,41.38
2022-11-27T19:39:14.458Z,41.13
2022-11-27T19:41:43.423Z,42.55
2022-11-27T19:44:12.706Z,39.80
2022-11-27T19:46:41.205Z,41.90
2022-11-27T19:49:14.183Z,40.67
2022-11-27T19:51:41.930Z,38.05
2022-11-27T19:54:13.145Z,35.83
2022-11-27T19:56:42.337Z,37.60
2022-11-27T19:59:11.309Z,37.75
2022-11-27T20:01:40.775Z,37.92
2022-11-27T20:04:11.357Z,35.20
2022-11-27T20:06:39.942Z,36.03
2022-11-27T20:09:08.286Z,37.63
2022-11-27T20:11:36.430Z,35.55
2022-11-27T20:14:06.629Z,37.55
2022-11-27T20:16:35.736Z,35.08
2022-11-27T20:19:06.080Z,37.15
2022-11-27T20:21:36.615Z,37.83
2022-11-27T20:24:04.579Z,39.03
2022-11-27T20:26:37.082Z,42.72
2022-11-27T20:29:06.370Z,39.65
2022-11-27T20:31:36.460Z,33.78
2022-11-27T20:34:06.753Z,36.77
2022-11-27T20:36:37.971Z,41.42
2022-11-27T20:39:05.897Z,44.72
2022-11-27T20:41:33.965Z,50.17
2022-11-27T20:44:04.829Z,41.70
2022-11-27T20:46:33.227Z,35.88
2022-11-27T20:49:01.966Z,43.75
2022-11-27T20:51:33.552Z,46.30
2022-11-27T20:54:09.156Z,46.30
2022-11-27T20:56:36.567Z,48.00
2022-11-27T20:59:05.185Z,50.95
2022-11-27T21:01:35.496Z,48.90
2022-11-27T21:04:09.617Z,47.63
2022-11-27T21:06:43.476Z,46.83
2022-11-27T21:09:13.968Z,46.10
2022-11-27T21:11:42.301Z,46.47
2022-11-27T21:14:12.803Z,46.90
2022-11-27T21:16:43.284Z,55.72
2022-11-27T21:19:19.863Z,59.45
2022-11-27T21:21:47.824Z,57.85
2022-11-27T21:24:15.764Z,62.17
2022-11-27T21:26:43.392Z,62.72
2022-11-27T21:29:12.527Z,63.47
2022-11-27T21:31:46.116Z,66.10
2022-11-27T21:34:15.906Z,61.67
2022-11-27T21:36:44.348Z,65.35
2022-11-27T21:39:13.409Z,66.55
2022-11-27T21:41:41.365Z,71.05
2022-11-27T21:44:09.749Z,63.45
2022-11-27T21:46:37.642Z,62.80
2022-11-27T21:49:06.819Z,67.63
2022-11-27T21:51:34.180Z,68.43
2022-11-27T21:54:06.960Z,68.30
2022-11-27T21:56:37.712Z,65.20
2022-11-27T21:59:06.928Z,71.13
2022-11-27T22:01:34.543Z,65.65
2022-11-27T22:04:02.712Z,63.05
2022-11-27T22:06:35.085Z,59.78
2022-11-27T22:09:03.975Z,67.00
2022-11-27T22:11:31.236Z,62.15
2022-11-27T22:14:02.580Z,63.30
2022-11-27T22:16:32.497Z,66.15
2022-11-27T22:19:01.305Z,62.95
2022-11-27T22:21:30.208Z,68.93
2022-11-27T22:23:59.671Z,73.05
2022-11-27T22:26:27.594Z,81.85
2022-11-27T22:28:57.122Z,74.22
2022-11-27T22:31:29.703Z,83.35
2022-11-27T22:33:57.714Z,82.82
2022-11-27T22:36:30.372Z,86.55
2022-11-27T22:39:00.789Z,80.05
2022-11-27T22:41:30.885Z,83.85
2022-11-27T22:44:00.478Z,91.57
2022-11-27T22:46:33.232Z,79.55
2022-11-27T22:49:03.591Z,74.78
2022-11-27T22:51:32.863Z,80.05
2022-11-27T22:54:01.809Z,68.32
2022-11-27T22:56:29.085Z,75.68
2022-11-27T22:59:17.592Z,72.70
2022-11-27T23:01:44.796Z,71.43
2022-11-27T23:04:12.244Z,71.07
2022-11-27T23:06:39.489Z,63.20
2022-11-27T23:09:07.940Z,69.72
2022-11-27T23:11:35.063Z,62.25
2022-11-27T23:14:03.473Z,58.70
2022-11-27T23:16:30.981Z,66.90
2022-11-27T23:18:58.432Z,68.55
2022-11-27T23:21:27.354Z,69.30
2022-11-27T23:23:54.839Z,73.88
2022-11-27T23:26:23.980Z,83.90
2022-11-27T23:28:53.564Z,72.28
2022-11-27T23:31:31.925Z,80.63
2022-11-27T23:34:02.014Z,79.13
2022-11-27T23:36:31.378Z,82.93
2022-11-27T23:39:03.715Z,91.97
2022-11-27T23:43:59.445Z,89.35
2022-11-27T23:46:29.437Z,88.45
2022-11-27T23:48:59.499Z,88.90
2022-11-27T23:51:29.881Z,90.30
2022-11-27T23:53:58.233Z,98.20
2022-11-27T23:56:28.210Z,99.40
2022-11-27T23:58:56.515Z,92.28
